sensor_id;sensor_type;location;lat;lon;timestamp;P1;durP1;ratioP1;P2;durP2;ratioP2
25780;SDS011;13626;48.128;11.628;2023-07-16T00:00:28;7.28;;;4.30;;
25780;SDS011;13626;48.128;11.628;2023-07-16T00:02:56;6.20;;;4.60;;
25780;SDS011;13626;48.128;11.628;2023-07-16T00:05:23;5.95;;;4.32;;
25780;SDS011;13626;48.128;11.628;2023-07-16T00:07:51;6.78;;;4.60;;
25780;SDS011;13626;48.128;11.628;2023-07-16T00:10:18;5.10;;;3.95;;
25780;SDS011;13626;48.128;11.628;2023-07-16T00:12:45;8.57;;;4.40;;
25780;SDS011;13626;48.128;11.628;2023-07-16T00:15:13;6.32;;;4.22;;
25780;SDS011;13626;48.128;11.628;2023-07-16T00:17:41;5.32;;;4.45;;
25780;SDS011;13626;48.128;11.628;2023-07-16T00:20:08;5.38;;;4.28;;
25780;SDS011;13626;48.128;11.628;2023-07-16T00:22:36;5.57;;;4.43;;
25780;SDS011;13626;48.128;11.628;2023-07-16T00:25:06;6.53;;;4.72;;
25780;SDS011;13626;48.128;11.628;2023-07-16T00:27:33;8.32;;;4.53;;
25780;SDS011;13626;48.128;11.628;2023-07-16T00:30:02;7.40;;;4.65;;
25780;SDS011;13626;48.128;11.628;2023-07-16T00:32:29;7.88;;;4.85;;
25780;SDS011;13626;48.128;11.628;2023-07-16T00:34:56;5.32;;;4.82;;
25780;SDS011;13626;48.128;11.628;2023-07-16T00:37:24;6.53;;;4.70;;
25780;SDS011;13626;48.128;11.628;2023-07-16T00:39:52;4.72;;;3.90;;
25780;SDS011;13626;48.128;11.628;2023-07-16T00:42:19;9.75;;;4.78;;
25780;SDS011;13626;48.128;11.628;2023-07-16T00:44:46;7.85;;;4.40;;
25780;SDS011;13626;48.128;11.628;2023-07-16T00:47:14;6.57;;;4.47;;
25780;SDS011;13626;48.128;11.628;2023-07-16T00:49:41;6.82;;;4.63;;
25780;SDS011;13626;48.128;11.628;2023-07-16T00:52:11;7.05;;;4.90;;
25780;SDS011;13626;48.128;11.628;2023-07-16T00:54:41;6.68;;;4.60;;
25780;SDS011;13626;48.128;11.628;2023-07-16T00:57:08;6.70;;;4.65;;
25780;SDS011;13626;48.128;11.628;2023-07-16T00:59:36;5.63;;;4.63;;
25780;SDS011;13626;48.128;11.628;2023-07-16T01:02:03;5.22;;;4.72;;
25780;SDS011;13626;48.128;11.628;2023-07-16T01:04:30;5.45;;;4.90;;
25780;SDS011;13626;48.128;11.628;2023-07-16T01:07:00;5.93;;;4.57;;
25780;SDS011;13626;48.128;11.628;2023-07-16T01:09:28;10.48;;;5.68;;
25780;SDS011;13626;48.128;11.628;2023-07-16T01:11:56;6.85;;;5.38;;
25780;SDS011;13626;48.128;11.628;2023-07-16T01:14:24;6.63;;;4.93;;
25780;SDS011;13626;48.128;11.628;2023-07-16T01:16:52;8.13;;;5.57;;
25780;SDS011;13626;48.128;11.628;2023-07-16T01:19:25;7.40;;;4.75;;
25780;SDS011;13626;48.128;11.628;2023-07-16T01:29:42;5.70;;;4.60;;
25780;SDS011;13626;48.128;11.628;2023-07-16T01:32:11;6.60;;;5.32;;
25780;SDS011;13626;48.128;11.628;2023-07-16T01:34:39;6.95;;;5.60;;
25780;SDS011;13626;48.128;11.628;2023-07-16T01:37:06;7.30;;;4.68;;
25780;SDS011;13626;48.128;11.628;2023-07-16T01:39:34;8.18;;;5.18;;
25780;SDS011;13626;48.128;11.628;2023-07-16T01:42:02;9.30;;;5.38;;
25780;SDS011;13626;48.128;11.628;2023-07-16T01:44:29;8.20;;;5.47;;
25780;SDS011;13626;48.128;11.628;2023-07-16T01:49:36;8.93;;;5.38;;
25780;SDS011;13626;48.128;11.628;2023-07-16T01:52:04;9.07;;;5.40;;
25780;SDS011;13626;48.128;11.628;2023-07-16T01:54:32;9.27;;;5.63;;
25780;SDS011;13626;48.128;11.628;2023-07-16T01:56:59;9.73;;;5.78;;
25780;SDS011;13626;48.128;11.628;2023-07-16T01:59:26;7.28;;;5.05;;
25780;SDS011;13626;48.128;11.628;2023-07-16T02:01:53;9.13;;;5.55;;
25780;SDS011;13626;48.128;11.628;2023-07-16T02:04:21;6.30;;;5.63;;
25780;SDS011;13626;48.128;11.628;2023-07-16T02:06:48;6.82;;;5.22;;
25780;SDS011;13626;48.128;11.628;2023-07-16T02:09:15;6.43;;;5.20;;
25780;SDS011;13626;48.128;11.628;2023-07-16T02:11:43;8.82;;;5.80;;
25780;SDS011;13626;48.128;11.628;2023-07-16T02:14:10;6.88;;;4.90;;
25780;SDS011;13626;48.128;11.628;2023-07-16T02:16:39;6.90;;;5.70;;
25780;SDS011;13626;48.128;11.628;2023-07-16T02:19:07;6.43;;;5.55;;
25780;SDS011;13626;48.128;11.628;2023-07-16T02:21:35;7.55;;;5.60;;
25780;SDS011;13626;48.128;11.628;2023-07-16T02:24:02;8.25;;;6.10;;
25780;SDS011;13626;48.128;11.628;2023-07-16T02:26:29;8.52;;;5.55;;
25780;SDS011;13626;48.128;11.628;2023-07-16T02:28:57;6.60;;;4.95;;
25780;SDS011;13626;48.128;11.628;2023-07-16T02:31:25;7.43;;;5.55;;
25780;SDS011;13626;48.128;11.628;2023-07-16T02:33:52;7.50;;;5.63;;
25780;SDS011;13626;48.128;11.628;2023-07-16T02:36:20;9.10;;;5.50;;
25780;SDS011;13626;48.128;11.628;2023-07-16T02:38:47;7.55;;;5.20;;
25780;SDS011;13626;48.128;11.628;2023-07-16T02:41:14;8.02;;;5.68;;
25780;SDS011;13626;48.128;11.628;2023-07-16T02:43:41;7.38;;;5.30;;
25780;SDS011;13626;48.128;11.628;2023-07-16T02:46:08;9.60;;;5.65;;
25780;SDS011;13626;48.128;11.628;2023-07-16T02:48:36;10.80;;;5.85;;
25780;SDS011;13626;48.128;11.628;2023-07-16T02:51:03;6.65;;;5.10;;
25780;SDS011;13626;48.128;11.628;2023-07-16T02:53:30;8.75;;;5.45;;
25780;SDS011;13626;48.128;11.628;2023-07-16T02:55:57;5.55;;;5.00;;
25780;SDS011;13626;48.128;11.628;2023-07-16T02:58:25;8.80;;;6.20;;
25780;SDS011;13626;48.128;11.628;2023-07-16T03:00:52;6.63;;;5.07;;
25780;SDS011;13626;48.128;11.628;2023-07-16T03:03:19;5.20;;;4.68;;
25780;SDS011;13626;48.128;11.628;2023-07-16T03:05:46;6.00;;;5.07;;
25780;SDS011;13626;48.128;11.628;2023-07-16T03:08:14;7.85;;;5.28;;
25780;SDS011;13626;48.128;11.628;2023-07-16T03:10:41;6.03;;;4.95;;
25780;SDS011;13626;48.128;11.628;2023-07-16T03:13:08;7.40;;;4.93;;
25780;SDS011;13626;48.128;11.628;2023-07-16T03:15:36;6.22;;;4.60;;
25780;SDS011;13626;48.128;11.628;2023-07-16T03:18:03;6.78;;;4.90;;
25780;SDS011;13626;48.128;11.628;2023-07-16T03:20:30;8.80;;;4.60;;
25780;SDS011;13626;48.128;11.628;2023-07-16T03:22:57;6.07;;;4.80;;
25780;SDS011;13626;48.128;11.628;2023-07-16T03:25:25;5.10;;;4.60;;
25780;SDS011;13626;48.128;11.628;2023-07-16T03:27:52;6.47;;;4.55;;
25780;SDS011;13626;48.128;11.628;2023-07-16T03:30:19;5.80;;;4.28;;
25780;SDS011;13626;48.128;11.628;2023-07-16T03:32:46;4.25;;;3.85;;
25780;SDS011;13626;48.128;11.628;2023-07-16T03:35:19;4.00;;;3.50;;
25780;SDS011;13626;48.128;11.628;2023-07-16T03:37:50;4.22;;;3.58;;
25780;SDS011;13626;48.128;11.628;2023-07-16T03:40:23;4.88;;;3.08;;
25780;SDS011;13626;48.128;11.628;2023-07-16T03:42:51;5.65;;;3.35;;
25780;SDS011;13626;48.128;11.628;2023-07-16T03:45:18;4.10;;;3.50;;
25780;SDS011;13626;48.128;11.628;2023-07-16T03:47:45;5.10;;;3.47;;
25780;SDS011;13626;48.128;11.628;2023-07-16T03:50:13;3.50;;;3.00;;
25780;SDS011;13626;48.128;11.628;2023-07-16T03:52:40;5.72;;;3.13;;
25780;SDS011;13626;48.128;11.628;2023-07-16T03:55:07;4.25;;;3.75;;
25780;SDS011;13626;48.128;11.628;2023-07-16T03:57:35;5.38;;;3.72;;
25780;SDS011;13626;48.128;11.628;2023-07-16T04:00:03;13.00;;;3.78;;
25780;SDS011;13626;48.128;11.628;2023-07-16T04:02:32;4.72;;;3.50;;
25780;SDS011;13626;48.128;11.628;2023-07-16T04:04:59;4.13;;;3.42;;
25780;SDS011;13626;48.128;11.628;2023-07-16T04:07:27;4.78;;;3.60;;
25780;SDS011;13626;48.128;11.628;2023-07-16T04:09:54;5.70;;;3.63;;
25780;SDS011;13626;48.128;11.628;2023-07-16T04:12:21;4.05;;;3.72;;
25780;SDS011;13626;48.128;11.628;2023-07-16T04:14:48;4.85;;;3.50;;
25780;SDS011;13626;48.128;11.628;2023-07-16T04:17:15;7.63;;;4.07;;
25780;SDS011;13626;48.128;11.628;2023-07-16T04:19:43;4.35;;;3.42;;
25780;SDS011;13626;48.128;11.628;2023-07-16T04:22:10;5.70;;;2.75;;
25780;SDS011;13626;48.128;11.628;2023-07-16T04:24:37;4.22;;;2.90;;
25780;SDS011;13626;48.128;11.628;2023-07-16T04:27:05;5.78;;;2.90;;
25780;SDS011;13626;48.128;11.628;2023-07-16T04:29:33;6.50;;;3.05;;
25780;SDS011;13626;48.128;11.628;2023-07-16T04:32:00;3.55;;;3.00;;
25780;SDS011;13626;48.128;11.628;2023-07-16T04:34:27;5.22;;;3.35;;
25780;SDS011;13626;48.128;11.628;2023-07-16T04:36:54;4.53;;;3.20;;
25780;SDS011;13626;48.128;11.628;2023-07-16T04:39:21;3.97;;;3.00;;
25780;SDS011;13626;48.128;11.628;2023-07-16T04:41:49;6.43;;;3.30;;
25780;SDS011;13626;48.128;11.628;2023-07-16T04:44:16;2.85;;;2.30;;
25780;SDS011;13626;48.128;11.628;2023-07-16T04:46:43;3.85;;;2.45;;
25780;SDS011;13626;48.128;11.628;2023-07-16T04:49:10;3.88;;;2.75;;
25780;SDS011;13626;48.128;11.628;2023-07-16T04:51:38;6.45;;;2.95;;
25780;SDS011;13626;48.128;11.628;2023-07-16T04:54:06;4.85;;;3.33;;
25780;SDS011;13626;48.128;11.628;2023-07-16T04:56:33;4.82;;;2.90;;
25780;SDS011;13626;48.128;11.628;2023-07-16T04:59:00;5.90;;;3.03;;
25780;SDS011;13626;48.128;11.628;2023-07-16T05:01:27;4.90;;;3.42;;
25780;SDS011;13626;48.128;11.628;2023-07-16T05:03:55;3.75;;;3.22;;
25780;SDS011;13626;48.128;11.628;2023-07-16T05:06:22;5.25;;;3.28;;
25780;SDS011;13626;48.128;11.628;2023-07-16T05:08:49;4.53;;;3.22;;
25780;SDS011;13626;48.128;11.628;2023-07-16T05:11:17;6.53;;;3.38;;
25780;SDS011;13626;48.128;11.628;2023-07-16T05:13:44;5.43;;;3.58;;
25780;SDS011;13626;48.128;11.628;2023-07-16T05:16:11;5.05;;;3.88;;
25780;SDS011;13626;48.128;11.628;2023-07-16T05:18:39;6.45;;;3.38;;
25780;SDS011;13626;48.128;11.628;2023-07-16T05:21:06;4.95;;;3.00;;
25780;SDS011;13626;48.128;11.628;2023-07-16T05:23:33;3.58;;;2.78;;
25780;SDS011;13626;48.128;11.628;2023-07-16T05:26:01;5.85;;;3.00;;
25780;SDS011;13626;48.128;11.628;2023-07-16T05:28:28;6.20;;;3.10;;
25780;SDS011;13626;48.128;11.628;2023-07-16T05:31:02;3.50;;;2.92;;
25780;SDS011;13626;48.128;11.628;2023-07-16T05:33:29;4.00;;;3.03;;
25780;SDS011;13626;48.128;11.628;2023-07-16T05:35:57;4.47;;;2.85;;
25780;SDS011;13626;48.128;11.628;2023-07-16T05:38:24;3.33;;;2.22;;
25780;SDS011;13626;48.128;11.628;2023-07-16T05:40:51;4.40;;;2.20;;
25780;SDS011;13626;48.128;11.628;2023-07-16T05:43:19;2.95;;;2.50;;
25780;SDS011;13626;48.128;11.628;2023-07-16T05:45:46;4.35;;;3.00;;
25780;SDS011;13626;48.128;11.628;2023-07-16T05:48:13;3.83;;;2.55;;
25780;SDS011;13626;48.128;11.628;2023-07-16T05:50:43;3.47;;;2.65;;
25780;SDS011;13626;48.128;11.628;2023-07-16T05:53:10;2.88;;;1.95;;
25780;SDS011;13626;48.128;11.628;2023-07-16T05:55:42;4.65;;;2.53;;
25780;SDS011;13626;48.128;11.628;2023-07-16T05:58:10;2.47;;;2.13;;
25780;SDS011;13626;48.128;11.628;2023-07-16T06:00:37;3.17;;;2.15;;
25780;SDS011;13626;48.128;11.628;2023-07-16T06:03:05;2.65;;;2.38;;
25780;SDS011;13626;48.128;11.628;2023-07-16T06:05:33;2.47;;;1.75;;
25780;SDS011;13626;48.128;11.628;2023-07-16T06:08:00;2.40;;;1.92;;
25780;SDS011;13626;48.128;11.628;2023-07-16T06:10:28;2.78;;;1.60;;
25780;SDS011;13626;48.128;11.628;2023-07-16T06:12:55;2.45;;;1.67;;
25780;SDS011;13626;48.128;11.628;2023-07-16T06:15:22;1.92;;;1.58;;
25780;SDS011;13626;48.128;11.628;2023-07-16T06:17:50;2.10;;;1.60;;
25780;SDS011;13626;48.128;11.628;2023-07-16T06:20:17;2.78;;;1.40;;
25780;SDS011;13626;48.128;11.628;2023-07-16T06:22:44;1.75;;;1.65;;
25780;SDS011;13626;48.128;11.628;2023-07-16T06:25:11;2.05;;;1.40;;
25780;SDS011;13626;48.128;11.628;2023-07-16T06:27:39;3.08;;;1.70;;
25780;SDS011;13626;48.128;11.628;2023-07-16T06:30:08;2.10;;;1.90;;
25780;SDS011;13626;48.128;11.628;2023-07-16T06:32:35;2.55;;;2.00;;
25780;SDS011;13626;48.128;11.628;2023-07-16T06:35:02;2.55;;;2.33;;
25780;SDS011;13626;48.128;11.628;2023-07-16T06:37:30;2.55;;;2.35;;
25780;SDS011;13626;48.128;11.628;2023-07-16T06:39:57;3.47;;;2.55;;
25780;SDS011;13626;48.128;11.628;2023-07-16T06:42:24;3.95;;;2.70;;
25780;SDS011;13626;48.128;11.628;2023-07-16T06:44:51;5.93;;;2.63;;
25780;SDS011;13626;48.128;11.628;2023-07-16T06:47:19;4.55;;;2.70;;
25780;SDS011;13626;48.128;11.628;2023-07-16T06:49:46;2.80;;;2.50;;
25780;SDS011;13626;48.128;11.628;2023-07-16T06:52:23;3.72;;;2.75;;
25780;SDS011;13626;48.128;11.628;2023-07-16T06:54:54;3.45;;;2.50;;
25780;SDS011;13626;48.128;11.628;2023-07-16T06:57:24;4.40;;;2.70;;
25780;SDS011;13626;48.128;11.628;2023-07-16T06:59:51;3.58;;;2.40;;
25780;SDS011;13626;48.128;11.628;2023-07-16T07:02:19;3.78;;;2.63;;
25780;SDS011;13626;48.128;11.628;2023-07-16T07:04:47;3.90;;;2.70;;
25780;SDS011;13626;48.128;11.628;2023-07-16T07:07:14;2.92;;;2.65;;
25780;SDS011;13626;48.128;11.628;2023-07-16T07:09:41;2.63;;;2.42;;
25780;SDS011;13626;48.128;11.628;2023-07-16T07:12:09;4.63;;;2.55;;
25780;SDS011;13626;48.128;11.628;2023-07-16T07:14:36;3.65;;;2.75;;
25780;SDS011;13626;48.128;11.628;2023-07-16T07:17:03;4.15;;;2.70;;
25780;SDS011;13626;48.128;11.628;2023-07-16T07:19:31;3.13;;;2.42;;
25780;SDS011;13626;48.128;11.628;2023-07-16T07:21:58;2.78;;;2.47;;
25780;SDS011;13626;48.128;11.628;2023-07-16T07:24:26;2.30;;;1.95;;
25780;SDS011;13626;48.128;11.628;2023-07-16T07:26:53;2.22;;;2.03;;
25780;SDS011;13626;48.128;11.628;2023-07-16T07:29:20;2.47;;;2.20;;
25780;SDS011;13626;48.128;11.628;2023-07-16T07:31:47;3.58;;;2.08;;
25780;SDS011;13626;48.128;11.628;2023-07-16T07:34:15;2.45;;;1.58;;
25780;SDS011;13626;48.128;11.628;2023-07-16T07:36:42;2.10;;;1.90;;
25780;SDS011;13626;48.128;11.628;2023-07-16T07:39:09;2.42;;;1.80;;
25780;SDS011;13626;48.128;11.628;2023-07-16T07:41:36;1.70;;;1.48;;
25780;SDS011;13626;48.128;11.628;2023-07-16T07:44:04;1.95;;;1.42;;
25780;SDS011;13626;48.128;11.628;2023-07-16T07:46:31;2.40;;;1.45;;
25780;SDS011;13626;48.128;11.628;2023-07-16T07:48:59;1.60;;;1.50;;
25780;SDS011;13626;48.128;11.628;2023-07-16T07:51:26;1.77;;;1.60;;
25780;SDS011;13626;48.128;11.628;2023-07-16T07:53:53;1.33;;;1.23;;
25780;SDS011;13626;48.128;11.628;2023-07-16T07:56:20;2.42;;;1.70;;
25780;SDS011;13626;48.128;11.628;2023-07-16T07:58:48;1.67;;;1.58;;
25780;SDS011;13626;48.128;11.628;2023-07-16T08:01:15;1.73;;;1.40;;
25780;SDS011;13626;48.128;11.628;2023-07-16T08:03:42;1.52;;;1.42;;
25780;SDS011;13626;48.128;11.628;2023-07-16T08:06:10;2.00;;;1.80;;
25780;SDS011;13626;48.128;11.628;2023-07-16T08:08:39;1.40;;;1.30;;
25780;SDS011;13626;48.128;11.628;2023-07-16T08:11:06;1.27;;;1.17;;
25780;SDS011;13626;48.128;11.628;2023-07-16T08:13:33;3.33;;;1.70;;
25780;SDS011;13626;48.128;11.628;2023-07-16T08:16:00;1.35;;;1.25;;
25780;SDS011;13626;48.128;11.628;2023-07-16T08:18:28;1.50;;;1.40;;
25780;SDS011;13626;48.128;11.628;2023-07-16T08:20:55;1.73;;;1.60;;
25780;SDS011;13626;48.128;11.628;2023-07-16T08:23:22;1.65;;;1.50;;
25780;SDS011;13626;48.128;11.628;2023-07-16T08:25:49;2.15;;;1.40;;
25780;SDS011;13626;48.128;11.628;2023-07-16T08:28:18;1.90;;;1.80;;
25780;SDS011;13626;48.128;11.628;2023-07-16T08:30:48;3.63;;;1.95;;
25780;SDS011;13626;48.128;11.628;2023-07-16T08:33:16;3.15;;;1.73;;
25780;SDS011;13626;48.128;11.628;2023-07-16T08:35:43;1.60;;;1.50;;
25780;SDS011;13626;48.128;11.628;2023-07-16T08:38:10;1.45;;;1.23;;
25780;SDS011;13626;48.128;11.628;2023-07-16T08:40:38;1.67;;;1.50;;
25780;SDS011;13626;48.128;11.628;2023-07-16T08:43:06;2.25;;;1.67;;
25780;SDS011;13626;48.128;11.628;2023-07-16T08:45:35;1.90;;;1.45;;
25780;SDS011;13626;48.128;11.628;2023-07-16T08:48:06;1.75;;;1.65;;
25780;SDS011;13626;48.128;11.628;2023-07-16T08:50:35;2.30;;;1.73;;
25780;SDS011;13626;48.128;11.628;2023-07-16T08:53:06;1.67;;;1.58;;
25780;SDS011;13626;48.128;11.628;2023-07-16T08:55:33;1.35;;;1.25;;
25780;SDS011;13626;48.128;11.628;2023-07-16T08:58:04;2.13;;;1.48;;
25780;SDS011;13626;48.128;11.628;2023-07-16T09:00:31;1.00;;;0.95;;
25780;SDS011;13626;48.128;11.628;2023-07-16T09:02:59;1.25;;;1.02;;
25780;SDS011;13626;48.128;11.628;2023-07-16T09:05:26;1.20;;;1.20;;
25780;SDS011;13626;48.128;11.628;2023-07-16T09:08:05;1.33;;;1.23;;
25780;SDS011;13626;48.128;11.628;2023-07-16T09:10:33;2.40;;;1.55;;
25780;SDS011;13626;48.128;11.628;2023-07-16T09:13:00;2.20;;;1.50;;
25780;SDS011;13626;48.128;11.628;2023-07-16T09:15:28;1.75;;;1.63;;
25780;SDS011;13626;48.128;11.628;2023-07-16T09:17:56;1.58;;;1.48;;
25780;SDS011;13626;48.128;11.628;2023-07-16T09:20:24;1.90;;;1.70;;
25780;SDS011;13626;48.128;11.628;2023-07-16T09:22:54;1.40;;;1.30;;
25780;SDS011;13626;48.128;11.628;2023-07-16T09:25:26;5.22;;;3.85;;
25780;SDS011;13626;48.128;11.628;2023-07-16T09:27:53;2.33;;;1.75;;
25780;SDS011;13626;48.128;11.628;2023-07-16T09:30:21;1.73;;;1.58;;
25780;SDS011;13626;48.128;11.628;2023-07-16T09:32:48;3.35;;;1.50;;
25780;SDS011;13626;48.128;11.628;2023-07-16T09:35:16;1.98;;;1.40;;
25780;SDS011;13626;48.128;11.628;2023-07-16T09:37:44;1.50;;;1.40;;
25780;SDS011;13626;48.128;11.628;2023-07-16T09:40:11;1.67;;;1.50;;
25780;SDS011;13626;48.128;11.628;2023-07-16T09:42:42;1.65;;;1.20;;
25780;SDS011;13626;48.128;11.628;2023-07-16T09:45:17;1.60;;;1.50;;
25780;SDS011;13626;48.128;11.628;2023-07-16T09:47:44;1.63;;;1.13;;
25780;SDS011;13626;48.128;11.628;2023-07-16T09:50:12;2.55;;;1.67;;
25780;SDS011;13626;48.128;11.628;2023-07-16T09:52:39;1.50;;;1.40;;
25780;SDS011;13626;48.128;11.628;2023-07-16T09:55:08;2.08;;;1.40;;
25780;SDS011;13626;48.128;11.628;2023-07-16T09:57:40;1.60;;;1.50;;
25780;SDS011;13626;48.128;11.628;2023-07-16T10:00:09;1.70;;;1.60;;
25780;SDS011;13626;48.128;11.628;2023-07-16T10:02:40;2.10;;;1.63;;
25780;SDS011;13626;48.128;11.628;2023-07-16T10:07:51;1.67;;;1.58;;
25780;SDS011;13626;48.128;11.628;2023-07-16T10:10:19;2.13;;;1.70;;
25780;SDS011;13626;48.128;11.628;2023-07-16T10:12:57;1.60;;;1.50;;
25780;SDS011;13626;48.128;11.628;2023-07-16T10:15:26;1.45;;;1.27;;
25780;SDS011;13626;48.128;11.628;2023-07-16T10:17:53;2.50;;;1.52;;
25780;SDS011;13626;48.128;11.628;2023-07-16T10:20:31;1.77;;;1.40;;
25780;SDS011;13626;48.128;11.628;2023-07-16T10:22:59;1.30;;;1.20;;
25780;SDS011;13626;48.128;11.628;2023-07-16T10:25:38;1.90;;;1.80;;
25780;SDS011;13626;48.128;11.628;2023-07-16T10:28:05;1.90;;;1.70;;
25780;SDS011;13626;48.128;11.628;2023-07-16T10:30:32;2.03;;;1.77;;
25780;SDS011;13626;48.128;11.628;2023-07-16T10:33:19;1.60;;;1.50;;
25780;SDS011;13626;48.128;11.628;2023-07-16T10:35:47;1.67;;;1.58;;
25780;SDS011;13626;48.128;11.628;2023-07-16T10:38:14;1.65;;;1.50;;
25780;SDS011;13626;48.128;11.628;2023-07-16T10:40:43;2.50;;;1.98;;
25780;SDS011;13626;48.128;11.628;2023-07-16T10:43:11;3.22;;;1.88;;
25780;SDS011;13626;48.128;11.628;2023-07-16T10:45:38;2.45;;;1.98;;
25780;SDS011;13626;48.128;11.628;2023-07-16T10:48:06;1.83;;;1.73;;
25780;SDS011;13626;48.128;11.628;2023-07-16T10:50:33;1.92;;;1.70;;
25780;SDS011;13626;48.128;11.628;2023-07-16T10:53:01;1.88;;;1.77;;
25780;SDS011;13626;48.128;11.628;2023-07-16T10:55:28;1.50;;;1.40;;
25780;SDS011;13626;48.128;11.628;2023-07-16T10:58:03;2.03;;;1.75;;
25780;SDS011;13626;48.128;11.628;2023-07-16T11:00:30;2.00;;;1.70;;
25780;SDS011;13626;48.128;11.628;2023-07-16T11:02:58;1.70;;;1.60;;
25780;SDS011;13626;48.128;11.628;2023-07-16T11:05:25;1.65;;;1.45;;
25780;SDS011;13626;48.128;11.628;2023-07-16T11:07:52;2.28;;;2.08;;
25780;SDS011;13626;48.128;11.628;2023-07-16T11:10:23;1.70;;;1.58;;
25780;SDS011;13626;48.128;11.628;2023-07-16T11:12:51;1.67;;;1.58;;
25780;SDS011;13626;48.128;11.628;2023-07-16T11:15:34;2.35;;;1.50;;
25780;SDS011;13626;48.128;11.628;2023-07-16T11:18:02;2.00;;;1.63;;
25780;SDS011;13626;48.128;11.628;2023-07-16T11:20:29;2.10;;;1.90;;
25780;SDS011;13626;48.128;11.628;2023-07-16T11:22:58;1.80;;;1.70;;
25780;SDS011;13626;48.128;11.628;2023-07-16T11:25:28;1.88;;;1.70;;
25780;SDS011;13626;48.128;11.628;2023-07-16T11:27:56;2.20;;;1.98;;
25780;SDS011;13626;48.128;11.628;2023-07-16T11:30:23;2.05;;;1.58;;
25780;SDS011;13626;48.128;11.628;2023-07-16T11:32:51;1.90;;;1.60;;
25780;SDS011;13626;48.128;11.628;2023-07-16T11:35:20;1.70;;;1.60;;
25780;SDS011;13626;48.128;11.628;2023-07-16T11:37:47;3.30;;;1.88;;
25780;SDS011;13626;48.128;11.628;2023-07-16T11:40:15;1.88;;;1.77;;
25780;SDS011;13626;48.128;11.628;2023-07-16T11:42:43;1.73;;;1.63;;
25780;SDS011;13626;48.128;11.628;2023-07-16T11:45:23;1.98;;;1.73;;
25780;SDS011;13626;48.128;11.628;2023-07-16T11:47:54;2.03;;;1.92;;
25780;SDS011;13626;48.128;11.628;2023-07-16T11:50:21;1.85;;;1.73;;
25780;SDS011;13626;48.128;11.628;2023-07-16T11:52:52;2.55;;;2.03;;
25780;SDS011;13626;48.128;11.628;2023-07-16T11:55:20;1.90;;;1.80;;
25780;SDS011;13626;48.128;11.628;2023-07-16T11:57:47;1.70;;;1.60;;
25780;SDS011;13626;48.128;11.628;2023-07-16T12:00:14;2.25;;;1.92;;
25780;SDS011;13626;48.128;11.628;2023-07-16T12:02:43;3.65;;;2.10;;
25780;SDS011;13626;48.128;11.628;2023-07-16T12:05:18;2.15;;;1.67;;
25780;SDS011;13626;48.128;11.628;2023-07-16T12:07:47;2.45;;;1.98;;
25780;SDS011;13626;48.128;11.628;2023-07-16T12:10:15;2.00;;;1.80;;
25780;SDS011;13626;48.128;11.628;2023-07-16T12:12:43;2.25;;;2.05;;
25780;SDS011;13626;48.128;11.628;2023-07-16T12:15:11;2.10;;;1.90;;
25780;SDS011;13626;48.128;11.628;2023-07-16T12:17:39;2.00;;;1.80;;
25780;SDS011;13626;48.128;11.628;2023-07-16T12:20:06;2.50;;;2.15;;
25780;SDS011;13626;48.128;11.628;2023-07-16T12:22:33;2.17;;;1.98;;
25780;SDS011;13626;48.128;11.628;2023-07-16T12:25:02;1.92;;;1.83;;
25780;SDS011;13626;48.128;11.628;2023-07-16T12:27:30;2.13;;;1.92;;
25780;SDS011;13626;48.128;11.628;2023-07-16T12:29:57;2.40;;;2.20;;
25780;SDS011;13626;48.128;11.628;2023-07-16T12:32:25;2.70;;;2.10;;
25780;SDS011;13626;48.128;11.628;2023-07-16T12:34:52;2.05;;;1.95;;
25780;SDS011;13626;48.128;11.628;2023-07-16T12:37:21;2.53;;;2.33;;
25780;SDS011;13626;48.128;11.628;2023-07-16T12:39:49;2.30;;;2.10;;
25780;SDS011;13626;48.128;11.628;2023-07-16T12:42:16;2.10;;;2.00;;
25780;SDS011;13626;48.128;11.628;2023-07-16T12:44:43;2.15;;;1.95;;
25780;SDS011;13626;48.128;11.628;2023-07-16T12:47:10;4.00;;;2.50;;
25780;SDS011;13626;48.128;11.628;2023-07-16T12:49:38;3.03;;;2.10;;
25780;SDS011;13626;48.128;11.628;2023-07-16T12:52:05;3.22;;;2.10;;
25780;SDS011;13626;48.128;11.628;2023-07-16T12:54:32;2.63;;;2.40;;
25780;SDS011;13626;48.128;11.628;2023-07-16T12:57:00;2.10;;;2.00;;
25780;SDS011;13626;48.128;11.628;2023-07-16T12:59:27;2.97;;;2.35;;
25780;SDS011;13626;48.128;11.628;2023-07-16T13:01:54;2.55;;;2.05;;
25780;SDS011;13626;48.128;11.628;2023-07-16T13:04:22;2.10;;;1.90;;
25780;SDS011;13626;48.128;11.628;2023-07-16T13:06:49;2.15;;;1.95;;
25780;SDS011;13626;48.128;11.628;2023-07-16T13:09:16;2.28;;;2.10;;
25780;SDS011;13626;48.128;11.628;2023-07-16T13:11:44;2.60;;;2.28;;
25780;SDS011;13626;48.128;11.628;2023-07-16T13:14:11;2.53;;;2.33;;
25780;SDS011;13626;48.128;11.628;2023-07-16T13:16:38;2.20;;;2.00;;
25780;SDS011;13626;48.128;11.628;2023-07-16T13:19:06;8.32;;;2.55;;
25780;SDS011;13626;48.128;11.628;2023-07-16T13:21:33;2.40;;;2.20;;
25780;SDS011;13626;48.128;11.628;2023-07-16T13:24:00;2.42;;;2.22;;
25780;SDS011;13626;48.128;11.628;2023-07-16T13:26:27;3.03;;;2.20;;
25780;SDS011;13626;48.128;11.628;2023-07-16T13:28:55;3.42;;;2.28;;
25780;SDS011;13626;48.128;11.628;2023-07-16T13:31:22;2.40;;;2.20;;
25780;SDS011;13626;48.128;11.628;2023-07-16T13:33:49;2.70;;;2.28;;
25780;SDS011;13626;48.128;11.628;2023-07-16T13:36:16;2.42;;;2.22;;
25780;SDS011;13626;48.128;11.628;2023-07-16T13:38:44;2.97;;;2.28;;
25780;SDS011;13626;48.128;11.628;2023-07-16T13:41:11;2.35;;;2.15;;
25780;SDS011;13626;48.128;11.628;2023-07-16T13:43:39;2.80;;;2.50;;
25780;SDS011;13626;48.128;11.628;2023-07-16T13:46:06;2.75;;;2.33;;
25780;SDS011;13626;48.128;11.628;2023-07-16T13:48:33;2.30;;;2.10;;
25780;SDS011;13626;48.128;11.628;2023-07-16T13:51:20;2.50;;;2.30;;
25780;SDS011;13626;48.128;11.628;2023-07-16T13:53:48;3.88;;;2.33;;
25780;SDS011;13626;48.128;11.628;2023-07-16T13:56:15;2.30;;;2.10;;
25780;SDS011;13626;48.128;11.628;2023-07-16T13:58:43;2.45;;;2.25;;
25780;SDS011;13626;48.128;11.628;2023-07-16T14:01:10;3.05;;;2.25;;
25780;SDS011;13626;48.128;11.628;2023-07-16T14:03:37;2.40;;;2.20;;
25780;SDS011;13626;48.128;11.628;2023-07-16T14:06:05;2.65;;;2.45;;
25780;SDS011;13626;48.128;11.628;2023-07-16T14:08:32;2.50;;;2.00;;
25780;SDS011;13626;48.128;11.628;2023-07-16T14:11:00;4.78;;;2.22;;
25780;SDS011;13626;48.128;11.628;2023-07-16T14:13:28;4.10;;;2.22;;
25780;SDS011;13626;48.128;11.628;2023-07-16T14:15:55;2.35;;;2.15;;
25780;SDS011;13626;48.128;11.628;2023-07-16T14:18:22;2.85;;;2.28;;
25780;SDS011;13626;48.128;11.628;2023-07-16T14:20:50;2.30;;;2.10;;
25780;SDS011;13626;48.128;11.628;2023-07-16T14:23:17;2.50;;;2.30;;
25780;SDS011;13626;48.128;11.628;2023-07-16T14:25:44;3.17;;;2.60;;
25780;SDS011;13626;48.128;11.628;2023-07-16T14:28:12;2.15;;;2.03;;
25780;SDS011;13626;48.128;11.628;2023-07-16T14:30:39;4.60;;;2.20;;
25780;SDS011;13626;48.128;11.628;2023-07-16T14:33:07;3.80;;;2.42;;
25780;SDS011;13626;48.128;11.628;2023-07-16T14:35:34;5.30;;;2.55;;
25780;SDS011;13626;48.128;11.628;2023-07-16T14:38:04;2.97;;;2.55;;
25780;SDS011;13626;48.128;11.628;2023-07-16T14:40:31;2.67;;;2.47;;
25780;SDS011;13626;48.128;11.628;2023-07-16T14:42:59;3.00;;;2.50;;
25780;SDS011;13626;48.128;11.628;2023-07-16T14:45:27;2.65;;;2.45;;
25780;SDS011;13626;48.128;11.628;2023-07-16T14:47:54;3.67;;;2.53;;
25780;SDS011;13626;48.128;11.628;2023-07-16T14:50:22;2.72;;;2.40;;